sensor_id;sensor_type;location;lat;lon;timestamp;P1;durP1;ratioP1;P2;durP2;ratioP2
16792;SDS011;8513;42.662;23.350;2023-05-10T00:02:07;6.03;;;5.63;;
16792;SDS011;8513;42.662;23.350;2023-05-10T00:04:33;6.37;;;5.87;;
16792;SDS011;8513;42.662;23.350;2023-05-10T00:06:58;5.90;;;5.50;;
16792;SDS011;8513;42.662;23.350;2023-05-10T00:09:23;6.30;;;5.80;;
16792;SDS011;8513;42.662;23.350;2023-05-10T00:11:49;6.20;;;5.70;;
16792;SDS011;8513;42.662;23.350;2023-05-10T00:14:15;5.97;;;5.27;;
16792;SDS011;8513;42.662;23.350;2023-05-10T00:16:40;6.20;;;5.60;;
16792;SDS011;8513;42.662;23.350;2023-05-10T00:19:06;5.53;;;5.13;;
16792;SDS011;8513;42.662;23.350;2023-05-10T00:21:31;6.50;;;6.00;;
16792;SDS011;8513;42.662;23.350;2023-05-10T00:23:58;6.87;;;6.37;;
16792;SDS011;8513;42.662;23.350;2023-05-10T00:26:24;7.30;;;6.78;;
16792;SDS011;8513;42.662;23.350;2023-05-10T00:28:49;6.63;;;6.13;;
16792;SDS011;8513;42.662;23.350;2023-05-10T00:31:15;6.47;;;6.07;;
16792;SDS011;8513;42.662;23.350;2023-05-10T00:33:40;6.70;;;6.27;;
16792;SDS011;8513;42.662;23.350;2023-05-10T00:36:06;6.40;;;5.90;;
16792;SDS011;8513;42.662;23.350;2023-05-10T00:38:32;7.90;;;7.30;;
16792;SDS011;8513;42.662;23.350;2023-05-10T00:40:58;7.10;;;6.60;;
16792;SDS011;8513;42.662;23.350;2023-05-10T00:43:23;7.90;;;7.20;;
16792;SDS011;8513;42.662;23.350;2023-05-10T00:45:49;7.73;;;7.17;;
16792;SDS011;8513;42.662;23.350;2023-05-10T00:48:15;7.50;;;6.90;;
16792;SDS011;8513;42.662;23.350;2023-05-10T00:50:40;7.23;;;6.67;;
16792;SDS011;8513;42.662;23.350;2023-05-10T00:53:06;7.37;;;6.87;;
16792;SDS011;8513;42.662;23.350;2023-05-10T00:55:32;7.63;;;7.03;;
16792;SDS011;8513;42.662;23.350;2023-05-10T00:57:58;7.60;;;6.73;;
16792;SDS011;8513;42.662;23.350;2023-05-10T01:00:23;7.87;;;7.27;;
16792;SDS011;8513;42.662;23.350;2023-05-10T01:02:49;8.37;;;7.67;;
16792;SDS011;8513;42.662;23.350;2023-05-10T01:05:15;8.07;;;7.47;;
16792;SDS011;8513;42.662;23.350;2023-05-10T01:07:40;7.50;;;6.87;;
16792;SDS011;8513;42.662;23.350;2023-05-10T01:10:06;6.80;;;6.30;;
16792;SDS011;8513;42.662;23.350;2023-05-10T01:12:36;7.57;;;7.03;;
16792;SDS011;8513;42.662;23.350;2023-05-10T01:15:05;8.53;;;7.50;;
16792;SDS011;8513;42.662;23.350;2023-05-10T01:17:33;8.53;;;7.73;;
16792;SDS011;8513;42.662;23.350;2023-05-10T01:20:00;7.60;;;7.00;;
16792;SDS011;8513;42.662;23.350;2023-05-10T01:22:32;8.30;;;7.70;;
16792;SDS011;8513;42.662;23.350;2023-05-10T01:28:17;7.83;;;7.23;;
16792;SDS011;8513;42.662;23.350;2023-05-10T01:33:39;7.40;;;6.87;;
16792;SDS011;8513;42.662;23.350;2023-05-10T01:36:42;6.50;;;6.00;;
16792;SDS011;8513;42.662;23.350;2023-05-10T01:39:11;6.53;;;5.93;;
16792;SDS011;8513;42.662;23.350;2023-05-10T01:41:55;6.77;;;6.27;;
16792;SDS011;8513;42.662;23.350;2023-05-10T01:44:42;5.80;;;5.30;;
16792;SDS011;8513;42.662;23.350;2023-05-10T01:49:55;4.70;;;4.40;;
16792;SDS011;8513;42.662;23.350;2023-05-10T01:52:30;4.77;;;4.37;;
16792;SDS011;8513;42.662;23.350;2023-05-10T01:55:00;4.67;;;4.37;;
16792;SDS011;8513;42.662;23.350;2023-05-10T01:57:31;4.53;;;4.23;;
16792;SDS011;8513;42.662;23.350;2023-05-10T01:59:58;4.53;;;4.13;;
16792;SDS011;8513;42.662;23.350;2023-05-10T02:02:26;4.20;;;3.90;;
16792;SDS011;8513;42.662;23.350;2023-05-10T02:04:53;4.17;;;3.67;;
16792;SDS011;8513;42.662;23.350;2023-05-10T02:07:21;4.53;;;4.23;;
16792;SDS011;8513;42.662;23.350;2023-05-10T02:09:49;4.10;;;3.80;;
16792;SDS011;8513;42.662;23.350;2023-05-10T02:12:15;4.37;;;3.97;;
16792;SDS011;8513;42.662;23.350;2023-05-10T02:14:42;4.10;;;3.80;;
16792;SDS011;8513;42.662;23.350;2023-05-10T02:17:08;3.97;;;3.63;;
16792;SDS011;8513;42.662;23.350;2023-05-10T02:19:36;3.50;;;3.30;;
16792;SDS011;8513;42.662;23.350;2023-05-10T02:22:04;3.77;;;3.33;;
16792;SDS011;8513;42.662;23.350;2023-05-10T02:24:31;3.63;;;3.33;;
16792;SDS011;8513;42.662;23.350;2023-05-10T02:26:58;4.67;;;3.90;;
16792;SDS011;8513;42.662;23.350;2023-05-10T02:29:25;3.77;;;3.37;;
16792;SDS011;8513;42.662;23.350;2023-05-10T02:31:54;3.60;;;3.30;;
16792;SDS011;8513;42.662;23.350;2023-05-10T02:34:25;4.30;;;3.53;;
16792;SDS011;8513;42.662;23.350;2023-05-10T02:36:52;6.00;;;3.93;;
16792;SDS011;8513;42.662;23.350;2023-05-10T02:39:19;6.93;;;3.97;;
16792;SDS011;8513;42.662;23.350;2023-05-10T02:41:45;5.07;;;3.80;;
16792;SDS011;8513;42.662;23.350;2023-05-10T02:44:14;4.07;;;3.67;;
16792;SDS011;8513;42.662;23.350;2023-05-10T02:46:41;4.40;;;4.00;;
16792;SDS011;8513;42.662;23.350;2023-05-10T02:49:07;4.67;;;4.30;;
16792;SDS011;8513;42.662;23.350;2023-05-10T02:51:34;4.53;;;4.13;;
16792;SDS011;8513;42.662;23.350;2023-05-10T02:54:04;5.47;;;4.20;;
16792;SDS011;8513;42.662;23.350;2023-05-10T02:56:36;4.70;;;4.30;;
16792;SDS011;8513;42.662;23.350;2023-05-10T02:59:04;4.63;;;4.20;;
16792;SDS011;8513;42.662;23.350;2023-05-10T03:01:30;4.90;;;4.50;;
16792;SDS011;8513;42.662;23.350;2023-05-10T03:03:55;6.17;;;4.50;;
16792;SDS011;8513;42.662;23.350;2023-05-10T03:06:21;6.97;;;4.40;;
16792;SDS011;8513;42.662;23.350;2023-05-10T03:08:46;4.03;;;3.63;;
16792;SDS011;8513;42.662;23.350;2023-05-10T03:11:16;4.37;;;4.07;;
16792;SDS011;8513;42.662;23.350;2023-05-10T03:16:23;4.63;;;4.20;;
16792;SDS011;8513;42.662;23.350;2023-05-10T03:19:05;4.50;;;4.20;;
16792;SDS011;8513;42.662;23.350;2023-05-10T03:21:35;5.10;;;4.67;;
16792;SDS011;8513;42.662;23.350;2023-05-10T03:24:07;4.47;;;4.07;;
16792;SDS011;8513;42.662;23.350;2023-05-10T03:26:34;6.30;;;4.10;;
16792;SDS011;8513;42.662;23.350;2023-05-10T03:29:00;4.10;;;3.70;;
16792;SDS011;8513;42.662;23.350;2023-05-10T03:31:27;4.77;;;4.40;;
16792;SDS011;8513;42.662;23.350;2023-05-10T03:33:52;4.50;;;4.10;;
16792;SDS011;8513;42.662;23.350;2023-05-10T03:36:18;4.03;;;3.67;;
16792;SDS011;8513;42.662;23.350;2023-05-10T03:38:44;5.13;;;4.33;;
16792;SDS011;8513;42.662;23.350;2023-05-10T03:41:10;5.17;;;3.57;;
16792;SDS011;8513;42.662;23.350;2023-05-10T03:43:36;4.40;;;4.10;;
16792;SDS011;8513;42.662;23.350;2023-05-10T03:46:05;4.30;;;4.00;;
16792;SDS011;8513;42.662;23.350;2023-05-10T03:48:34;4.70;;;4.30;;
16792;SDS011;8513;42.662;23.350;2023-05-10T03:50:59;4.70;;;4.23;;
16792;SDS011;8513;42.662;23.350;2023-05-10T03:53:25;4.53;;;4.13;;
16792;SDS011;8513;42.662;23.350;2023-05-10T03:55:51;5.13;;;4.33;;
16792;SDS011;8513;42.662;23.350;2023-05-10T03:58:17;4.67;;;4.27;;
16792;SDS011;8513;42.662;23.350;2023-05-10T04:00:43;5.67;;;4.83;;
16792;SDS011;8513;42.662;23.350;2023-05-10T04:03:10;5.37;;;4.67;;
16792;SDS011;8513;42.662;23.350;2023-05-10T04:05:38;4.63;;;4.33;;
16792;SDS011;8513;42.662;23.350;2023-05-10T04:08:04;4.93;;;4.43;;
16792;SDS011;8513;42.662;23.350;2023-05-10T04:10:30;4.47;;;3.97;;
16792;SDS011;8513;42.662;23.350;2023-05-10T04:12:56;7.30;;;5.10;;
16792;SDS011;8513;42.662;23.350;2023-05-10T04:15:21;4.97;;;4.20;;
16792;SDS011;8513;42.662;23.350;2023-05-10T04:17:47;4.97;;;4.47;;
16792;SDS011;8513;42.662;23.350;2023-05-10T04:20:13;4.67;;;4.23;;
16792;SDS011;8513;42.662;23.350;2023-05-10T04:22:38;5.07;;;4.57;;
16792;SDS011;8513;42.662;23.350;2023-05-10T04:25:04;5.30;;;4.53;;
16792;SDS011;8513;42.662;23.350;2023-05-10T04:27:31;4.93;;;4.43;;
16792;SDS011;8513;42.662;23.350;2023-05-10T04:29:56;5.67;;;4.80;;
16792;SDS011;8513;42.662;23.350;2023-05-10T04:32:22;6.77;;;5.20;;
16792;SDS011;8513;42.662;23.350;2023-05-10T04:34:48;5.20;;;4.70;;
16792;SDS011;8513;42.662;23.350;2023-05-10T04:37:13;5.27;;;4.87;;
16792;SDS011;8513;42.662;23.350;2023-05-10T04:39:39;5.37;;;4.80;;
16792;SDS011;8513;42.662;23.350;2023-05-10T04:42:04;5.23;;;4.77;;
16792;SDS011;8513;42.662;23.350;2023-05-10T04:44:31;9.90;;;5.07;;
16792;SDS011;8513;42.662;23.350;2023-05-10T04:46:59;5.33;;;4.80;;
16792;SDS011;8513;42.662;23.350;2023-05-10T04:49:25;5.57;;;4.87;;
16792;SDS011;8513;42.662;23.350;2023-05-10T04:51:50;4.83;;;4.07;;
16792;SDS011;8513;42.662;23.350;2023-05-10T04:54:15;5.03;;;4.63;;
16792;SDS011;8513;42.662;23.350;2023-05-10T04:56:41;5.00;;;4.60;;
16792;SDS011;8513;42.662;23.350;2023-05-10T04:59:06;5.40;;;4.90;;
16792;SDS011;8513;42.662;23.350;2023-05-10T05:01:32;5.17;;;4.57;;
16792;SDS011;8513;42.662;23.350;2023-05-10T05:03:58;5.00;;;4.50;;
16792;SDS011;8513;42.662;23.350;2023-05-10T05:06:24;4.93;;;4.40;;
16792;SDS011;8513;42.662;23.350;2023-05-10T05:08:50;5.57;;;4.53;;
16792;SDS011;8513;42.662;23.350;2023-05-10T05:11:18;6.33;;;5.27;;
16792;SDS011;8513;42.662;23.350;2023-05-10T05:13:44;5.83;;;5.33;;
16792;SDS011;8513;42.662;23.350;2023-05-10T05:16:09;7.93;;;4.97;;
16792;SDS011;8513;42.662;23.350;2023-05-10T05:18:36;5.73;;;5.23;;
16792;SDS011;8513;42.662;23.350;2023-05-10T05:21:02;6.37;;;5.77;;
16792;SDS011;8513;42.662;23.350;2023-05-10T05:23:27;6.47;;;5.87;;
16792;SDS011;8513;42.662;23.350;2023-05-10T05:25:53;6.20;;;5.60;;
16792;SDS011;8513;42.662;23.350;2023-05-10T05:28:19;6.30;;;5.70;;
16792;SDS011;8513;42.662;23.350;2023-05-10T05:30:47;6.40;;;5.77;;
16792;SDS011;8513;42.662;23.350;2023-05-10T05:33:13;6.47;;;5.50;;
16792;SDS011;8513;42.662;23.350;2023-05-10T05:35:40;6.23;;;5.63;;
16792;SDS011;8513;42.662;23.350;2023-05-10T05:38:06;5.67;;;5.17;;
16792;SDS011;8513;42.662;23.350;2023-05-10T05:40:31;6.73;;;6.13;;
16792;SDS011;8513;42.662;23.350;2023-05-10T05:42:57;6.50;;;5.90;;
16792;SDS011;8513;42.662;23.350;2023-05-10T05:45:22;6.57;;;5.90;;
16792;SDS011;8513;42.662;23.350;2023-05-10T05:47:48;8.20;;;7.00;;
16792;SDS011;8513;42.662;23.350;2023-05-10T05:50:13;8.23;;;7.27;;
16792;SDS011;8513;42.662;23.350;2023-05-10T05:52:39;7.30;;;6.70;;
16792;SDS011;8513;42.662;23.350;2023-05-10T05:55:05;8.20;;;7.50;;
16792;SDS011;8513;42.662;23.350;2023-05-10T05:57:30;7.60;;;6.67;;
16792;SDS011;8513;42.662;23.350;2023-05-10T05:59:56;10.07;;;9.07;;
16792;SDS011;8513;42.662;23.350;2023-05-10T06:02:21;8.80;;;7.20;;
16792;SDS011;8513;42.662;23.350;2023-05-10T06:04:47;8.77;;;7.97;;
16792;SDS011;8513;42.662;23.350;2023-05-10T06:07:12;10.53;;;8.33;;
16792;SDS011;8513;42.662;23.350;2023-05-10T06:09:37;9.07;;;8.27;;
16792;SDS011;8513;42.662;23.350;2023-05-10T06:12:03;9.30;;;8.40;;
16792;SDS011;8513;42.662;23.350;2023-05-10T06:14:28;9.13;;;7.70;;
16792;SDS011;8513;42.662;23.350;2023-05-10T06:16:54;9.00;;;8.20;;
16792;SDS011;8513;42.662;23.350;2023-05-10T06:19:20;9.53;;;8.50;;
16792;SDS011;8513;42.662;23.350;2023-05-10T06:21:45;9.23;;;8.20;;
16792;SDS011;8513;42.662;23.350;2023-05-10T06:24:10;8.97;;;8.07;;
16792;SDS011;8513;42.662;23.350;2023-05-10T06:26:36;8.43;;;7.50;;
16792;SDS011;8513;42.662;23.350;2023-05-10T06:29:01;8.23;;;7.40;;
16792;SDS011;8513;42.662;23.350;2023-05-10T06:31:27;8.83;;;8.03;;
16792;SDS011;8513;42.662;23.350;2023-05-10T06:33:52;8.93;;;7.80;;
16792;SDS011;8513;42.662;23.350;2023-05-10T06:36:18;8.93;;;7.90;;
16792;SDS011;8513;42.662;23.350;2023-05-10T06:38:43;9.43;;;8.43;;
16792;SDS011;8513;42.662;23.350;2023-05-10T06:41:09;8.67;;;7.87;;
16792;SDS011;8513;42.662;23.350;2023-05-10T06:43:34;8.83;;;7.93;;
16792;SDS011;8513;42.662;23.350;2023-05-10T06:46:00;9.37;;;8.47;;
16792;SDS011;8513;42.662;23.350;2023-05-10T06:48:25;8.53;;;7.67;;
16792;SDS011;8513;42.662;23.350;2023-05-10T06:50:51;9.10;;;7.70;;
16792;SDS011;8513;42.662;23.350;2023-05-10T06:53:16;8.80;;;7.90;;
16792;SDS011;8513;42.662;23.350;2023-05-10T06:55:42;8.80;;;7.90;;
16792;SDS011;8513;42.662;23.350;2023-05-10T06:58:07;8.40;;;7.60;;
16792;SDS011;8513;42.662;23.350;2023-05-10T07:00:33;7.47;;;6.77;;
16792;SDS011;8513;42.662;23.350;2023-05-10T07:02:58;9.07;;;8.07;;
16792;SDS011;8513;42.662;23.350;2023-05-10T07:05:24;8.27;;;7.47;;
16792;SDS011;8513;42.662;23.350;2023-05-10T07:07:49;10.17;;;8.23;;
16792;SDS011;8513;42.662;23.350;2023-05-10T07:10:15;10.60;;;8.23;;
16792;SDS011;8513;42.662;23.350;2023-05-10T07:12:40;8.57;;;7.70;;
16792;SDS011;8513;42.662;23.350;2023-05-10T07:15:06;8.27;;;7.43;;
16792;SDS011;8513;42.662;23.350;2023-05-10T07:17:32;8.20;;;7.40;;
16792;SDS011;8513;42.662;23.350;2023-05-10T07:19:58;7.87;;;7.07;;
16792;SDS011;8513;42.662;23.350;2023-05-10T07:22:24;8.40;;;7.63;;
16792;SDS011;8513;42.662;23.350;2023-05-10T07:24:50;8.40;;;7.20;;
16792;SDS011;8513;42.662;23.350;2023-05-10T07:27:16;8.43;;;7.50;;
16792;SDS011;8513;42.662;23.350;2023-05-10T07:29:41;8.73;;;7.83;;
16792;SDS011;8513;42.662;23.350;2023-05-10T07:32:07;9.70;;;7.87;;
16792;SDS011;8513;42.662;23.350;2023-05-10T07:34:32;9.47;;;8.57;;
16792;SDS011;8513;42.662;23.350;2023-05-10T07:36:58;11.53;;;8.00;;
16792;SDS011;8513;42.662;23.350;2023-05-10T07:39:24;9.13;;;8.23;;
16792;SDS011;8513;42.662;23.350;2023-05-10T07:41:50;9.77;;;8.20;;
16792;SDS011;8513;42.662;23.350;2023-05-10T07:44:15;13.00;;;8.73;;
16792;SDS011;8513;42.662;23.350;2023-05-10T07:46:43;9.80;;;8.80;;
16792;SDS011;8513;42.662;23.350;2023-05-10T07:49:09;9.10;;;8.30;;
16792;SDS011;8513;42.662;23.350;2023-05-10T07:51:37;10.50;;;8.10;;
16792;SDS011;8513;42.662;23.350;2023-05-10T07:54:03;10.90;;;9.17;;
16792;SDS011;8513;42.662;23.350;2023-05-10T07:56:29;8.97;;;7.90;;
16792;SDS011;8513;42.662;23.350;2023-05-10T07:59:00;10.33;;;9.33;;
16792;SDS011;8513;42.662;23.350;2023-05-10T08:01:32;8.83;;;8.13;;
16792;SDS011;8513;42.662;23.350;2023-05-10T08:03:59;8.27;;;7.57;;
16792;SDS011;8513;42.662;23.350;2023-05-10T08:06:25;10.37;;;9.30;;
16792;SDS011;8513;42.662;23.350;2023-05-10T08:08:55;9.80;;;8.90;;
16792;SDS011;8513;42.662;23.350;2023-05-10T08:11:21;9.47;;;8.57;;
16792;SDS011;8513;42.662;23.350;2023-05-10T08:13:48;9.43;;;8.53;;
16792;SDS011;8513;42.662;23.350;2023-05-10T08:16:14;9.80;;;8.90;;
16792;SDS011;8513;42.662;23.350;2023-05-10T08:18:40;10.70;;;8.80;;
16792;SDS011;8513;42.662;23.350;2023-05-10T08:21:06;15.83;;;9.53;;
16792;SDS011;8513;42.662;23.350;2023-05-10T08:23:32;9.57;;;8.60;;
16792;SDS011;8513;42.662;23.350;2023-05-10T08:25:57;9.10;;;8.20;;
16792;SDS011;8513;42.662;23.350;2023-05-10T08:28:23;9.17;;;8.27;;
16792;SDS011;8513;42.662;23.350;2023-05-10T08:30:49;10.83;;;7.90;;
16792;SDS011;8513;42.662;23.350;2023-05-10T08:33:15;8.83;;;8.07;;
16792;SDS011;8513;42.662;23.350;2023-05-10T08:35:42;8.33;;;7.57;;
16792;SDS011;8513;42.662;23.350;2023-05-10T08:38:07;8.70;;;6.90;;
16792;SDS011;8513;42.662;23.350;2023-05-10T08:40:33;8.53;;;7.60;;
16792;SDS011;8513;42.662;23.350;2023-05-10T08:43:07;8.73;;;7.93;;
16792;SDS011;8513;42.662;23.350;2023-05-10T08:45:38;9.30;;;8.47;;
16792;SDS011;8513;42.662;23.350;2023-05-10T08:48:08;11.43;;;10.40;;
16792;SDS011;8513;42.662;23.350;2023-05-10T08:50:39;13.68;;;12.48;;
16792;SDS011;8513;42.662;23.350;2023-05-10T08:53:10;10.70;;;9.63;;
16792;SDS011;8513;42.662;23.350;2023-05-10T08:55:36;12.45;;;11.25;;
16792;SDS011;8513;42.662;23.350;2023-05-10T08:58:04;10.17;;;9.17;;
16792;SDS011;8513;42.662;23.350;2023-05-10T09:00:30;10.13;;;9.13;;
16792;SDS011;8513;42.662;23.350;2023-05-10T09:02:57;9.87;;;9.07;;
16792;SDS011;8513;42.662;23.350;2023-05-10T09:05:23;9.82;;;8.93;;
16792;SDS011;8513;42.662;23.350;2023-05-10T09:07:49;14.32;;;8.70;;
16792;SDS011;8513;42.662;23.350;2023-05-10T09:10:14;10.37;;;9.50;;
16792;SDS011;8513;42.662;23.350;2023-05-10T09:12:40;10.40;;;9.40;;
16792;SDS011;8513;42.662;23.350;2023-05-10T09:15:06;9.47;;;8.07;;
16792;SDS011;8513;42.662;23.350;2023-05-10T09:17:34;10.50;;;9.45;;
16792;SDS011;8513;42.662;23.350;2023-05-10T09:20:00;10.38;;;9.25;;
16792;SDS011;8513;42.662;23.350;2023-05-10T09:22:26;10.00;;;9.03;;
16792;SDS011;8513;42.662;23.350;2023-05-10T09:27:35;11.02;;;10.13;;
16792;SDS011;8513;42.662;23.350;2023-05-10T09:30:03;10.68;;;9.40;;
16792;SDS011;8513;42.662;23.350;2023-05-10T09:32:39;8.23;;;7.45;;
16792;SDS011;8513;42.662;23.350;2023-05-10T09:35:07;12.07;;;10.93;;
16792;SDS011;8513;42.662;23.350;2023-05-10T09:40:33;9.20;;;8.47;;
16792;SDS011;8513;42.662;23.350;2023-05-10T09:43:00;8.57;;;7.87;;
16792;SDS011;8513;42.662;23.350;2023-05-10T09:45:32;10.33;;;9.23;;
16792;SDS011;8513;42.662;23.350;2023-05-10T09:48:00;9.38;;;8.57;;
16792;SDS011;8513;42.662;23.350;2023-05-10T09:50:27;9.25;;;8.55;;
16792;SDS011;8513;42.662;23.350;2023-05-10T09:52:55;8.80;;;8.07;;
16792;SDS011;8513;42.662;23.350;2023-05-10T09:55:25;9.20;;;8.40;;
16792;SDS011;8513;42.662;23.350;2023-05-10T09:58:03;8.88;;;8.15;;
16792;SDS011;8513;42.662;23.350;2023-05-10T10:00:34;8.50;;;7.03;;
16792;SDS011;8513;42.662;23.350;2023-05-10T10:03:00;9.13;;;8.32;;
16792;SDS011;8513;42.662;23.350;2023-05-10T10:05:30;8.67;;;7.23;;
16792;SDS011;8513;42.662;23.350;2023-05-10T10:08:00;7.67;;;6.97;;
16792;SDS011;8513;42.662;23.350;2023-05-10T10:10:28;10.67;;;8.17;;
16792;SDS011;8513;42.662;23.350;2023-05-10T10:12:55;11.40;;;7.43;;
16792;SDS011;8513;42.662;23.350;2023-05-10T10:15:21;7.40;;;6.80;;
16792;SDS011;8513;42.662;23.350;2023-05-10T10:17:48;7.50;;;6.90;;
16792;SDS011;8513;42.662;23.350;2023-05-10T10:20:14;8.50;;;7.73;;
16792;SDS011;8513;42.662;23.350;2023-05-10T10:22:41;6.75;;;6.10;;
16792;SDS011;8513;42.662;23.350;2023-05-10T10:25:09;7.15;;;6.55;;
16792;SDS011;8513;42.662;23.350;2023-05-10T10:27:38;7.23;;;6.63;;
16792;SDS011;8513;42.662;23.350;2023-05-10T10:30:17;7.60;;;6.65;;
16792;SDS011;8513;42.662;23.350;2023-05-10T10:32:59;7.47;;;6.20;;
16792;SDS011;8513;42.662;23.350;2023-05-10T10:35:35;7.60;;;6.70;;
16792;SDS011;8513;42.662;23.350;2023-05-10T10:38:01;7.82;;;5.93;;
16792;SDS011;8513;42.662;23.350;2023-05-10T10:40:31;7.47;;;6.00;;
16792;SDS011;8513;42.662;23.350;2023-05-10T10:42:58;8.00;;;6.37;;
16792;SDS011;8513;42.662;23.350;2023-05-10T10:48:38;6.97;;;5.97;;
16792;SDS011;8513;42.662;23.350;2023-05-10T10:51:04;6.68;;;6.05;;
16792;SDS011;8513;42.662;23.350;2023-05-10T10:53:29;8.60;;;6.30;;
16792;SDS011;8513;42.662;23.350;2023-05-10T10:56:05;7.40;;;6.27;;
16792;SDS011;8513;42.662;23.350;2023-05-10T10:58:35;7.70;;;6.13;;
16792;SDS011;8513;42.662;23.350;2023-05-10T11:01:12;7.50;;;6.32;;
16792;SDS011;8513;42.662;23.350;2023-05-10T11:03:40;6.80;;;6.10;;
16792;SDS011;8513;42.662;23.350;2023-05-10T11:06:06;8.33;;;6.43;;
16792;SDS011;8513;42.662;23.350;2023-05-10T11:08:33;6.03;;;5.50;;
16792;SDS011;8513;42.662;23.350;2023-05-10T11:11:06;6.95;;;6.30;;
16792;SDS011;8513;42.662;23.350;2023-05-10T11:13:33;8.55;;;5.85;;
16792;SDS011;8513;42.662;23.350;2023-05-10T11:16:09;6.13;;;5.53;;
16792;SDS011;8513;42.662;23.350;2023-05-10T11:19:02;6.20;;;5.60;;
16792;SDS011;8513;42.662;23.350;2023-05-10T11:21:32;6.20;;;5.63;;
16792;SDS011;8513;42.662;23.350;2023-05-10T11:23:59;7.50;;;6.00;;
16792;SDS011;8513;42.662;23.350;2023-05-10T11:26:29;7.13;;;6.30;;
16792;SDS011;8513;42.662;23.350;2023-05-10T11:28:56;6.63;;;5.90;;
16792;SDS011;8513;42.662;23.350;2023-05-10T11:31:24;7.35;;;6.65;;
16792;SDS011;8513;42.662;23.350;2023-05-10T11:33:55;6.23;;;5.50;;
16792;SDS011;8513;42.662;23.350;2023-05-10T11:36:25;7.38;;;5.30;;
16792;SDS011;8513;42.662;23.350;2023-05-10T11:38:52;6.67;;;5.60;;
16792;SDS011;8513;42.662;23.350;2023-05-10T11:41:19;6.57;;;5.90;;
16792;SDS011;8513;42.662;23.350;2023-05-10T11:43:49;6.93;;;5.40;;
16792;SDS011;8513;42.662;23.350;2023-05-10T11:46:17;6.10;;;5.13;;
16792;SDS011;8513;42.662;23.350;2023-05-10T11:48:45;6.00;;;5.37;;
16792;SDS011;8513;42.662;23.350;2023-05-10T11:51:12;6.73;;;5.90;;
16792;SDS011;8513;42.662;23.350;2023-05-10T11:53:37;8.18;;;5.75;;
16792;SDS011;8513;42.662;23.350;2023-05-10T11:56:09;6.97;;;6.20;;
16792;SDS011;8513;42.662;23.350;2023-05-10T11:58:35;7.80;;;6.05;;
16792;SDS011;8513;42.662;23.350;2023-05-10T12:01:02;6.60;;;5.57;;
16792;SDS011;8513;42.662;23.350;2023-05-10T12:03:29;6.70;;;5.87;;
16792;SDS011;8513;42.662;23.350;2023-05-10T12:05:55;9.38;;;6.40;;
16792;SDS011;8513;42.662;23.350;2023-05-10T12:08:22;7.97;;;6.72;;
16792;SDS011;8513;42.662;23.350;2023-05-10T12:10:49;10.05;;;9.07;;
16792;SDS011;8513;42.662;23.350;2023-05-10T12:13:15;8.63;;;7.93;;
16792;SDS011;8513;42.662;23.350;2023-05-10T12:15:42;9.53;;;7.33;;
16792;SDS011;8513;42.662;23.350;2023-05-10T12:18:11;9.00;;;8.20;;
16792;SDS011;8513;42.662;23.350;2023-05-10T12:20:38;7.80;;;7.00;;
16792;SDS011;8513;42.662;23.350;2023-05-10T12:23:05;7.15;;;6.45;;
16792;SDS011;8513;42.662;23.350;2023-05-10T12:25:32;7.65;;;6.10;;
16792;SDS011;8513;42.662;23.350;2023-05-10T12:27:58;9.07;;;6.63;;
16792;SDS011;8513;42.662;23.350;2023-05-10T12:30:28;7.50;;;6.70;;
16792;SDS011;8513;42.662;23.350;2023-05-10T12:33:16;7.80;;;6.90;;
16792;SDS011;8513;42.662;23.350;2023-05-10T12:35:46;8.38;;;6.80;;
16792;SDS011;8513;42.662;23.350;2023-05-10T12:41:00;6.23;;;5.73;;
16792;SDS011;8513;42.662;23.350;2023-05-10T12:43:27;6.83;;;6.00;;
16792;SDS011;8513;42.662;23.350;2023-05-10T12:45:53;6.77;;;6.10;;
16792;SDS011;8513;42.662;23.350;2023-05-10T12:48:19;6.90;;;6.20;;
16792;SDS011;8513;42.662;23.350;2023-05-10T12:50:45;7.10;;;6.40;;
16792;SDS011;8513;42.662;23.350;2023-05-10T12:53:13;8.00;;;6.20;;
16792;SDS011;8513;42.662;23.350;2023-05-10T12:55:40;6.77;;;6.17;;
16792;SDS011;8513;42.662;23.350;2023-05-10T12:58:06;7.18;;;6.47;;
16792;SDS011;8513;42.662;23.350;2023-05-10T13:00:31;7.35;;;6.10;;
16792;SDS011;8513;42.662;23.350;2023-05-10T13:02:57;6.40;;;5.77;;
16792;SDS011;8513;42.662;23.350;2023-05-10T13:05:22;7.50;;;6.80;;
16792;SDS011;8513;42.662;23.350;2023-05-10T13:07:48;7.90;;;6.83;;
16792;SDS011;8513;42.662;23.350;2023-05-10T13:10:13;8.50;;;6.20;;
16792;SDS011;8513;42.662;23.350;2023-05-10T13:12:39;9.20;;;6.53;;
16792;SDS011;8513;42.662;23.350;2023-05-10T13:15:04;10.60;;;7.10;;
16792;SDS011;8513;42.662;23.350;2023-05-10T13:17:30;9.33;;;7.23;;
16792;SDS011;8513;42.662;23.350;2023-05-10T13:19:56;7.13;;;6.43;;
16792;SDS011;8513;42.662;23.350;2023-05-10T13:22:21;11.33;;;7.17;;
16792;SDS011;8513;42.662;23.350;2023-05-10T13:24:46;8.43;;;7.07;;
16792;SDS011;8513;42.662;23.350;2023-05-10T13:27:12;8.00;;;6.40;;
16792;SDS011;8513;42.662;23.350;2023-05-10T13:29:37;5.90;;;5.25;;
16792;SDS011;8513;42.662;23.350;2023-05-10T13:32:03;6.57;;;5.80;;
16792;SDS011;8513;42.662;23.350;2023-05-10T13:34:28;5.57;;;4.93;;
16792;SDS011;8513;42.662;23.350;2023-05-10T13:36:54;6.87;;;5.40;;
16792;SDS011;8513;42.662;23.350;2023-05-10T13:39:21;6.43;;;5.77;;
16792;SDS011;8513;42.662;23.350;2023-05-10T13:41:46;5.70;;;5.20;;
16792;SDS011;8513;42.662;23.350;2023-05-10T13:44:12;7.70;;;5.40;;
16792;SDS011;8513;42.662;23.350;2023-05-10T13:46:39;7.70;;;5.20;;
16792;SDS011;8513;42.662;23.350;2023-05-10T13:49:07;6.70;;;6.00;;
16792;SDS011;8513;42.662;23.350;2023-05-10T13:51:33;6.43;;;5.83;;
16792;SDS011;8513;42.662;23.350;2023-05-10T13:53:59;8.90;;;6.30;;
16792;SDS011;8513;42.662;23.350;2023-05-10T13:56:25;7.55;;;6.75;;
16792;SDS011;8513;42.662;23.350;2023-05-10T13:58:50;7.75;;;6.20;;
16792;SDS011;8513;42.662;23.350;2023-05-10T14:01:16;10.03;;;6.13;;
16792;SDS011;8513;42.662;23.350;2023-05-10T14:03:41;8.70;;;6.10;;
16792;SDS011;8513;42.662;23.350;2023-05-10T14:06:07;7.77;;;6.23;;
16792;SDS011;8513;42.662;23.350;2023-05-10T14:08:33;8.27;;;5.97;;
16792;SDS011;8513;42.662;23.350;2023-05-10T14:10:59;9.27;;;6.53;;
16792;SDS011;8513;42.662;23.350;2023-05-10T14:13:25;6.93;;;6.17;;
16792;SDS011;8513;42.662;23.350;2023-05-10T14:15:50;8.73;;;5.50;;
16792;SDS011;8513;42.662;23.350;2023-05-10T14:18:17;6.47;;;5.70;;
16792;SDS011;8513;42.662;23.350;2023-05-10T14:20:43;6.95;;;5.60;;
16792;SDS011;8513;42.662;23.350;2023-05-10T14:23:08;9.17;;;6.23;;
16792;SDS011;8513;42.662;23.350;2023-05-10T14:25:33;7.90;;;6.47;;
16792;SDS011;8513;42.662;23.350;2023-05-10T14:27:59;10.85;;;6.68;;
16792;SDS011;8513;42.662;23.350;2023-05-10T14:30:25;7.10;;;6.50;;
16792;SDS011;8513;42.662;23.350;2023-05-10T14:32:50;6.80;;;6.10;;
16792;SDS011;8513;42.662;23.350;2023-05-10T14:35:17;8.25;;;6.95;;
16792;SDS011;8513;42.662;23.350;2023-05-10T14:37:43;9.88;;;6.20;;
16792;SDS011;8513;42.662;23.350;2023-05-10T14:40:08;10.80;;;7.00;;
16792;SDS011;8513;42.662;23.350;2023-05-10T14:42:34;7.90;;;6.17;;
16792;SDS011;8513;42.662;23.350;2023-05-10T14:45:00;9.33;;;6.93;;
16792;SDS011;8513;42.662;23.350;2023-05-10T14:47:25;7.70;;;6.43;;
16792;SDS011;8513;42.662;23.350;2023-05-10T14:49:51;7.93;;;7.13;;
16792;SDS011;8513;42.662;23.350;2023-05-10T14:52:16;9.48;;;6.40;;
16792;SDS011;8513;42.662;23.350;2023-05-10T14:54:42;7.87;;;6.40;;
16792;SDS011;8513;42.662;23.350;2023-05-10T14:57:07;8.87;;;6.87;;
16792;SDS011;8513;42.662;23.350;2023-05-10T14:59:33;7.20;;;6.40;;
16792;SDS011;8513;42.662;23.350;2023-05-10T15:01:58;8.03;;;6.73;;
16792;SDS011;8513;42.662;23.350;2023-05-10T15:04:24;7.63;;;6.60;;
16792;SDS011;8513;42.662;23.350;2023-05-10T15:06:49;9.23;;;6.72;;
16792;SDS011;8513;42.662;23.350;2023-05-10T15:09:15;7.80;;;6.40;;